sensor_id;sensor_type;location;lat;lon;timestamp;pressure;altitude;pressure_sealevel;temperature;humidity
26719;BME280;14326;50.794;6.060;2024-03-25T00:02:16;98896.16;;;5.74;100.00
26719;BME280;14326;50.794;6.060;2024-03-25T00:04:43;98896.97;;;5.71;100.00
26719;BME280;14326;50.794;6.060;2024-03-25T00:07:09;98896.97;;;5.71;100.00
26719;BME280;14326;50.794;6.060;2024-03-25T00:09:37;98896.16;;;5.74;100.00
26719;BME280;14326;50.794;6.060;2024-03-25T00:12:03;98895.31;;;5.78;100.00
26719;BME280;14326;50.794;6.060;2024-03-25T00:14:30;98897.88;;;5.72;100.00
26719;BME280;14326;50.794;6.060;2024-03-25T00:16:57;98890.75;;;5.65;100.00
26719;BME280;14326;50.794;6.060;2024-03-25T00:19:23;98888.97;;;5.64;100.00
26719;BME280;14326;50.794;6.060;2024-03-25T00:21:49;98895.06;;;5.61;100.00
26719;BME280;14326;50.794;6.060;2024-03-25T00:24:15;98894.31;;;5.68;100.00
26719;BME280;14326;50.794;6.060;2024-03-25T00:26:43;98894.28;;;5.65;100.00
26719;BME280;14326;50.794;6.060;2024-03-25T00:29:09;98890.59;;;5.57;100.00
26719;BME280;14326;50.794;6.060;2024-03-25T00:31:36;98889.72;;;5.57;100.00
26719;BME280;14326;50.794;6.060;2024-03-25T00:34:02;98895.00;;;5.57;100.00
26719;BME280;14326;50.794;6.060;2024-03-25T00:36:28;98891.38;;;5.52;100.00
26719;BME280;14326;50.794;6.060;2024-03-25T00:38:54;98890.47;;;5.50;100.00
26719;BME280;14326;50.794;6.060;2024-03-25T00:41:21;98891.34;;;5.50;100.00
26719;BME280;14326;50.794;6.060;2024-03-25T00:43:48;98891.28;;;5.46;100.00
26719;BME280;14326;50.794;6.060;2024-03-25T00:46:15;98879.91;;;5.50;100.00
26719;BME280;14326;50.794;6.060;2024-03-25T00:48:41;98889.53;;;5.46;100.00
26719;BME280;14326;50.794;6.060;2024-03-25T00:51:08;98896.47;;;5.41;100.00
26719;BME280;14326;50.794;6.060;2024-03-25T00:53:34;98902.44;;;5.31;100.00
26719;BME280;14326;50.794;6.060;2024-03-25T00:56:00;98897.94;;;5.24;100.00
26719;BME280;14326;50.794;6.060;2024-03-25T00:58:26;98892.66;;;5.24;100.00
26719;BME280;14326;50.794;6.060;2024-03-25T01:00:55;98893.63;;;5.30;100.00
26719;BME280;14326;50.794;6.060;2024-03-25T01:03:21;98878.69;;;5.29;100.00
26719;BME280;14326;50.794;6.060;2024-03-25T01:05:48;98898.78;;;5.24;100.00
26719;BME280;14326;50.794;6.060;2024-03-25T01:08:14;98897.03;;;5.25;100.00
26719;BME280;14326;50.794;6.060;2024-03-25T01:10:42;98892.69;;;5.27;100.00
26719;BME280;14326;50.794;6.060;2024-03-25T01:13:08;98897.84;;;5.21;100.00
26719;BME280;14326;50.794;6.060;2024-03-25T01:15:35;98898.78;;;5.23;100.00
26719;BME280;14326;50.794;6.060;2024-03-25T01:18:04;98898.81;;;5.26;100.00
26719;BME280;14326;50.794;6.060;2024-03-25T01:20:31;98898.72;;;5.20;100.00
26719;BME280;14326;50.794;6.060;2024-03-25T01:22:57;98898.72;;;5.20;100.00
26719;BME280;14326;50.794;6.060;2024-03-25T01:25:23;98898.00;;;5.28;100.00
26719;BME280;14326;50.794;6.060;2024-03-25T01:27:50;98891.63;;;5.16;100.00
26719;BME280;14326;50.794;6.060;2024-03-25T01:30:19;98892.59;;;5.21;100.00
26719;BME280;14326;50.794;6.060;2024-03-25T01:32:44;98889.94;;;5.21;100.00
26719;BME280;14326;50.794;6.060;2024-03-25T01:35:15;98885.69;;;5.27;100.00
26719;BME280;14326;50.794;6.060;2024-03-25T01:37:41;98889.94;;;5.21;100.00
26719;BME280;14326;50.794;6.060;2024-03-25T01:40:08;98895.22;;;5.21;100.00
26719;BME280;14326;50.794;6.060;2024-03-25T01:42:35;98894.25;;;5.16;100.00
26719;BME280;14326;50.794;6.060;2024-03-25T01:45:02;98888.25;;;5.23;100.00
26719;BME280;14326;50.794;6.060;2024-03-25T01:47:37;98889.91;;;5.18;100.00
26719;BME280;14326;50.794;6.060;2024-03-25T01:50:06;98891.63;;;5.16;100.00
26719;BME280;14326;50.794;6.060;2024-03-25T01:52:33;98889.00;;;5.17;100.00
26719;BME280;14326;50.794;6.060;2024-03-25T01:55:00;98881.91;;;5.15;100.00
26719;BME280;14326;50.794;6.060;2024-03-25T01:57:29;98883.75;;;5.17;100.00
26719;BME280;14326;50.794;6.060;2024-03-25T01:59:55;98883.75;;;5.17;100.00
26719;BME280;14326;50.794;6.060;2024-03-25T02:02:21;98884.78;;;5.27;100.00
26719;BME280;14326;50.794;6.060;2024-03-25T02:04:48;98876.72;;;5.19;100.00
26719;BME280;14326;50.794;6.060;2024-03-25T02:07:14;98879.47;;;5.24;100.00
26719;BME280;14326;50.794;6.060;2024-03-25T02:09:44;98880.28;;;5.21;100.00
26719;BME280;14326;50.794;6.060;2024-03-25T02:12:10;98876.69;;;5.16;100.00
26719;BME280;14326;50.794;6.060;2024-03-25T02:14:38;98881.84;;;5.10;100.00
26719;BME280;14326;50.794;6.060;2024-03-25T02:17:04;98876.72;;;5.19;100.00
26719;BME280;14326;50.794;6.060;2024-03-25T02:19:33;98884.50;;;5.12;100.00
26719;BME280;14326;50.794;6.060;2024-03-25T02:22:02;98876.41;;;5.03;100.00
26719;BME280;14326;50.794;6.060;2024-03-25T02:24:31;98871.31;;;5.10;100.00
26719;BME280;14326;50.794;6.060;2024-03-25T02:27:00;98871.88;;;4.94;100.00
26719;BME280;14326;50.794;6.060;2024-03-25T02:29:33;98868.28;;;4.90;100.00
26719;BME280;14326;50.794;6.060;2024-03-25T02:31:59;98870.03;;;4.88;100.00
26719;BME280;14326;50.794;6.060;2024-03-25T02:34:26;98869.22;;;4.92;100.00
26719;BME280;14326;50.794;6.060;2024-03-25T02:36:52;98869.22;;;4.92;100.00
26719;BME280;14326;50.794;6.060;2024-03-25T02:39:20;98861.88;;;4.78;100.00
26719;BME280;14326;50.794;6.060;2024-03-25T02:41:46;98875.69;;;4.66;100.00
26719;BME280;14326;50.794;6.060;2024-03-25T02:44:14;98865.94;;;4.61;100.00
26719;BME280;14326;50.794;6.060;2024-03-25T02:46:41;98858.63;;;4.46;100.00
26719;BME280;14326;50.794;6.060;2024-03-25T02:49:07;98861.03;;;4.35;100.00
26719;BME280;14326;50.794;6.060;2024-03-25T02:51:33;98849.56;;;4.33;100.00
26719;BME280;14326;50.794;6.060;2024-03-25T02:54:00;98857.38;;;4.29;100.00
26719;BME280;14326;50.794;6.060;2024-03-25T02:56:26;98859.16;;;4.30;100.00
26719;BME280;14326;50.794;6.060;2024-03-25T02:58:52;98853.69;;;4.21;100.00
26719;BME280;14326;50.794;6.060;2024-03-25T03:01:19;98849.25;;;4.20;100.00
26719;BME280;14326;50.794;6.060;2024-03-25T03:03:46;98852.59;;;4.12;100.00
26719;BME280;14326;50.794;6.060;2024-03-25T03:06:13;98855.16;;;4.08;100.00
26719;BME280;14326;50.794;6.060;2024-03-25T03:08:40;98855.00;;;4.02;100.00
26719;BME280;14326;50.794;6.060;2024-03-25T03:11:06;98849.69;;;3.99;100.00
26719;BME280;14326;50.794;6.060;2024-03-25T03:13:32;98848.84;;;4.01;100.00
26719;BME280;14326;50.794;6.060;2024-03-25T03:15:58;98847.81;;;3.93;100.00
26719;BME280;14326;50.794;6.060;2024-03-25T03:18:27;98847.81;;;3.93;100.00
26719;BME280;14326;50.794;6.060;2024-03-25T03:20:52;98837.06;;;3.83;100.00
26719;BME280;14326;50.794;6.060;2024-03-25T03:23:21;98836.72;;;3.69;100.00
26719;BME280;14326;50.794;6.060;2024-03-25T03:25:47;98836.72;;;-142.25;100.00
26719;BME280;14326;50.794;6.060;2024-03-25T03:28:47;98840.25;;;3.69;100.00
26719;BME280;14326;50.794;6.060;2024-03-25T03:31:13;98837.38;;;3.59;100.00
26719;BME280;14326;50.794;6.060;2024-03-25T03:33:39;98838.09;;;3.53;100.00
26719;BME280;14326;50.794;6.060;2024-03-25T03:36:09;98838.09;;;3.53;100.00
26719;BME280;14326;50.794;6.060;2024-03-25T03:38:35;98835.47;;;3.53;100.00
26719;BME280;14326;50.794;6.060;2024-03-25T03:41:03;98843.22;;;3.49;100.00
26719;BME280;14326;50.794;6.060;2024-03-25T03:43:29;98849.06;;;3.37;100.00
26719;BME280;14326;50.794;6.060;2024-03-25T03:45:57;98841.19;;;3.37;100.00
26719;BME280;14326;50.794;6.060;2024-03-25T03:48:23;98843.81;;;3.03;100.00
26719;BME280;14326;50.794;6.060;2024-03-25T03:50:50;98844.66;;;3.00;100.00
26719;BME280;14326;50.794;6.060;2024-03-25T03:53:16;98842.09;;;3.03;100.00
26719;BME280;14326;50.794;6.060;2024-03-25T03:55:42;98837.06;;;3.12;100.00
26719;BME280;14326;50.794;6.060;2024-03-25T03:58:18;98823.78;;;3.06;100.00
26719;BME280;14326;50.794;6.060;2024-03-25T04:00:45;98842.09;;;3.03;100.00
26719;BME280;14326;50.794;6.060;2024-03-25T04:03:12;98829.84;;;3.04;100.00
26719;BME280;14326;50.794;6.060;2024-03-25T04:05:41;98829.78;;;3.02;100.00
26719;BME280;14326;50.794;6.060;2024-03-25T04:08:07;98821.91;;;3.02;100.00
26719;BME280;14326;50.794;6.060;2024-03-25T04:10:34;98831.72;;;3.09;100.00
26719;BME280;14326;50.794;6.060;2024-03-25T04:13:01;98827.31;;;3.08;100.00
26719;BME280;14326;50.794;6.060;2024-03-25T04:15:28;98820.84;;;2.96;100.00
26719;BME280;14326;50.794;6.060;2024-03-25T04:17:53;98830.63;;;3.01;100.00
26719;BME280;14326;50.794;6.060;2024-03-25T04:20:22;98820.84;;;2.96;100.00
26719;BME280;14326;50.794;6.060;2024-03-25T04:22:47;98827.00;;;2.96;100.00
26719;BME280;14326;50.794;6.060;2024-03-25T04:25:14;98824.44;;;2.98;100.00
26719;BME280;14326;50.794;6.060;2024-03-25T04:27:40;98825.16;;;2.92;100.00
26719;BME280;14326;50.794;6.060;2024-03-25T04:30:07;98833.72;;;2.85;100.00
26719;BME280;14326;50.794;6.060;2024-03-25T04:32:34;98826.78;;;2.87;100.00
26719;BME280;14326;50.794;6.060;2024-03-25T04:35:01;98817.91;;;2.82;100.00
26719;BME280;14326;50.794;6.060;2024-03-25T04:37:28;98821.25;;;2.76;100.00
26719;BME280;14326;50.794;6.060;2024-03-25T04:39:54;98813.16;;;2.69;100.00
26719;BME280;14326;50.794;6.060;2024-03-25T04:42:20;98818.19;;;2.61;100.00
26719;BME280;14326;50.794;6.060;2024-03-25T04:44:49;98817.41;;;2.64;100.00
26719;BME280;14326;50.794;6.060;2024-03-25T04:47:14;98812.25;;;2.68;100.00
26719;BME280;14326;50.794;6.060;2024-03-25T04:49:43;98819.25;;;2.68;100.00
26719;BME280;14326;50.794;6.060;2024-03-25T04:52:09;98818.25;;;2.63;100.00
26719;BME280;14326;50.794;6.060;2024-03-25T04:54:37;98817.28;;;2.61;100.00
26719;BME280;14326;50.794;6.060;2024-03-25T04:57:14;98817.22;;;2.58;100.00
26719;BME280;14326;50.794;6.060;2024-03-25T04:59:40;98812.81;;;2.57;100.00
26719;BME280;14326;50.794;6.060;2024-03-25T05:02:06;98821.41;;;2.51;100.00
26719;BME280;14326;50.794;6.060;2024-03-25T05:04:32;98817.84;;;2.49;100.00
26719;BME280;14326;50.794;6.060;2024-03-25T05:07:01;98824.47;;;2.35;100.00
26719;BME280;14326;50.794;6.060;2024-03-25T05:09:27;98821.66;;;2.29;100.00
26719;BME280;14326;50.794;6.060;2024-03-25T05:11:54;98826.03;;;2.30;100.00
26719;BME280;14326;50.794;6.060;2024-03-25T05:14:20;98832.19;;;2.30;100.00
26719;BME280;14326;50.794;6.060;2024-03-25T05:16:45;98833.22;;;2.35;100.00
26719;BME280;14326;50.794;6.060;2024-03-25T05:19:11;98832.94;;;2.26;100.00
26719;BME280;14326;50.794;6.060;2024-03-25T05:22:02;98825.78;;;2.21;100.00
26719;BME280;14326;50.794;6.060;2024-03-25T05:24:33;98825.44;;;2.38;100.00
26719;BME280;14326;50.794;6.060;2024-03-25T05:27:00;98831.81;;;2.48;100.00
26719;BME280;14326;50.794;6.060;2024-03-25T05:29:26;98834.06;;;2.34;100.00
26719;BME280;14326;50.794;6.060;2024-03-25T05:31:56;98835.50;;;2.23;100.00
26719;BME280;14326;50.794;6.060;2024-03-25T05:34:22;98844.28;;;2.25;100.00
26719;BME280;14326;50.794;6.060;2024-03-25T05:36:48;98844.63;;;2.37;100.00
26719;BME280;14326;50.794;6.060;2024-03-25T05:39:14;98839.16;;;2.30;100.00
26719;BME280;14326;50.794;6.060;2024-03-25T05:41:40;98843.31;;;2.52;100.00
26719;BME280;14326;50.794;6.060;2024-03-25T05:44:07;98844.56;;;2.66;100.00
26719;BME280;14326;50.794;6.060;2024-03-25T05:46:33;98836.59;;;2.94;100.00
26719;BME280;14326;50.794;6.060;2024-03-25T05:49:01;98836.31;;;3.16;100.00
26719;BME280;14326;50.794;6.060;2024-03-25T05:51:27;98832.34;;;3.34;100.00
26719;BME280;14326;50.794;6.060;2024-03-25T05:53:53;98827.47;;;3.49;100.00
26719;BME280;14326;50.794;6.060;2024-03-25T05:56:19;98831.28;;;3.61;100.00
26719;BME280;14326;50.794;6.060;2024-03-25T05:58:45;98832.31;;;3.68;100.00
26719;BME280;14326;50.794;6.060;2024-03-25T06:01:12;98826.25;;;3.70;100.00
26719;BME280;14326;50.794;6.060;2024-03-25T06:03:38;98834.28;;;3.78;100.00
26719;BME280;14326;50.794;6.060;2024-03-25T06:06:04;98837.81;;;3.79;100.00
26719;BME280;14326;50.794;6.060;2024-03-25T06:08:33;98829.25;;;3.87;100.00
26719;BME280;14326;50.794;6.060;2024-03-25T06:11:03;98834.53;;;3.87;100.00
26719;BME280;14326;50.794;6.060;2024-03-25T06:13:29;98823.47;;;4.03;100.00
26719;BME280;14326;50.794;6.060;2024-03-25T06:15:58;98829.84;;;4.15;100.00
26719;BME280;14326;50.794;6.060;2024-03-25T06:18:25;98815.38;;;4.35;100.00
26719;BME280;14326;50.794;6.060;2024-03-25T06:20:51;98823.41;;;4.42;100.00
26719;BME280;14326;50.794;6.060;2024-03-25T06:23:23;98816.63;;;4.52;100.00
26719;BME280;14326;50.794;6.060;2024-03-25T06:25:50;98808.06;;;4.64;100.00
26719;BME280;14326;50.794;6.060;2024-03-25T06:28:16;98806.44;;;4.72;100.00
26719;BME280;14326;50.794;6.060;2024-03-25T06:30:41;98815.44;;;4.81;100.00
26719;BME280;14326;50.794;6.060;2024-03-25T06:33:27;98812.50;;;5.14;100.00
26719;BME280;14326;50.794;6.060;2024-03-25T06:36:11;98805.19;;;6.05;100.00
26719;BME280;14326;50.794;6.060;2024-03-25T06:38:36;98805.06;;;7.56;100.00
26719;BME280;14326;50.794;6.060;2024-03-25T06:41:02;98792.56;;;9.01;100.00
26719;BME280;14326;50.794;6.060;2024-03-25T06:43:28;98796.06;;;10.26;94.78
26719;BME280;14326;50.794;6.060;2024-03-25T06:45:54;98785.88;;;11.15;87.70
26719;BME280;14326;50.794;6.060;2024-03-25T06:48:20;98792.91;;;11.28;83.15
26719;BME280;14326;50.794;6.060;2024-03-25T06:50:54;98783.69;;;11.72;79.78
26719;BME280;14326;50.794;6.060;2024-03-25T06:53:19;98789.63;;;12.03;76.56
26719;BME280;14326;50.794;6.060;2024-03-25T06:55:55;98784.03;;;12.27;75.24
26719;BME280;14326;50.794;6.060;2024-03-25T06:58:22;98786.72;;;12.25;74.66
26719;BME280;14326;50.794;6.060;2024-03-25T07:00:48;98782.03;;;12.46;72.74
26719;BME280;14326;50.794;6.060;2024-03-25T07:03:14;98774.81;;;12.55;69.80
26719;BME280;14326;50.794;6.060;2024-03-25T07:05:40;98781.44;;;12.19;72.92
26719;BME280;14326;50.794;6.060;2024-03-25T07:08:07;98788.13;;;11.71;75.98
26719;BME280;14326;50.794;6.060;2024-03-25T07:10:33;98786.56;;;11.46;80.04
26719;BME280;14326;50.794;6.060;2024-03-25T07:12:59;98778.91;;;11.00;79.91
26719;BME280;14326;50.794;6.060;2024-03-25T07:15:24;98772.78;;;10.89;83.10
26719;BME280;14326;50.794;6.060;2024-03-25T07:20:26;98788.06;;;10.37;84.86
26719;BME280;14326;50.794;6.060;2024-03-25T07:22:52;98783.66;;;10.36;87.81
26719;BME280;14326;50.794;6.060;2024-03-25T07:25:19;98785.47;;;10.20;86.80
26719;BME280;14326;50.794;6.060;2024-03-25T07:27:45;98792.56;;;10.05;88.29
26719;BME280;14326;50.794;6.060;2024-03-25T07:30:11;98781.94;;;10.17;88.11
26719;BME280;14326;50.794;6.060;2024-03-25T07:32:36;98798.78;;;9.95;89.69
26719;BME280;14326;50.794;6.060;2024-03-25T07:35:02;98785.53;;;9.70;89.34
26719;BME280;14326;50.794;6.060;2024-03-25T07:37:29;98791.72;;;9.60;90.90
26719;BME280;14326;50.794;6.060;2024-03-25T07:39:54;98785.53;;;9.41;93.84
26719;BME280;14326;50.794;6.060;2024-03-25T07:42:22;98787.31;;;9.52;94.13
26719;BME280;14326;50.794;6.060;2024-03-25T07:44:47;98787.31;;;9.33;93.43
26719;BME280;14326;50.794;6.060;2024-03-25T07:47:13;98780.22;;;9.37;95.11
26719;BME280;14326;50.794;6.060;2024-03-25T07:49:39;98778.44;;;9.22;95.07
26719;BME280;14326;50.794;6.060;2024-03-25T07:52:05;98780.19;;;9.05;95.03
26719;BME280;14326;50.794;6.060;2024-03-25T07:54:31;98781.09;;;9.18;95.24
26719;BME280;14326;50.794;6.060;2024-03-25T07:56:57;98781.09;;;9.45;95.35
26719;BME280;14326;50.794;6.060;2024-03-25T07:59:24;98780.22;;;9.67;93.81
26719;BME280;14326;50.794;6.060;2024-03-25T08:01:50;98779.31;;;9.83;92.79
26719;BME280;14326;50.794;6.060;2024-03-25T08:04:19;98780.16;;;10.13;90.29
26719;BME280;14326;50.794;6.060;2024-03-25T08:06:45;98771.22;;;10.40;88.35
26719;BME280;14326;50.794;6.060;2024-03-25T08:09:11;98777.28;;;10.69;88.42
26719;BME280;14326;50.794;6.060;2024-03-25T08:11:37;98771.66;;;11.19;84.06
26719;BME280;14326;50.794;6.060;2024-03-25T08:14:03;98773.34;;;11.32;82.81
26719;BME280;14326;50.794;6.060;2024-03-25T08:16:31;98782.06;;;11.53;81.26
26719;BME280;14326;50.794;6.060;2024-03-25T08:18:57;98784.00;;;11.32;80.04
26719;BME280;14326;50.794;6.060;2024-03-25T08:21:23;98780.25;;;11.55;78.71
26719;BME280;14326;50.794;6.060;2024-03-25T08:23:49;98781.09;;;11.64;79.57
26719;BME280;14326;50.794;6.060;2024-03-25T08:26:14;98771.19;;;11.80;77.57
26719;BME280;14326;50.794;6.060;2024-03-25T08:28:40;98763.78;;;12.12;76.23
26719;BME280;14326;50.794;6.060;2024-03-25T08:31:06;98764.22;;;12.49;74.46
26719;BME280;14326;50.794;6.060;2024-03-25T08:33:33;98764.59;;;12.89;70.95
26719;BME280;14326;50.794;6.060;2024-03-25T08:35:59;98760.41;;;12.67;70.20
26719;BME280;14326;50.794;6.060;2024-03-25T08:38:25;98763.84;;;12.78;69.40
26719;BME280;14326;50.794;6.060;2024-03-25T08:40:51;98762.66;;;12.97;68.41
26719;BME280;14326;50.794;6.060;2024-03-25T08:43:17;98763.47;;;13.04;65.14
26719;BME280;14326;50.794;6.060;2024-03-25T08:45:43;98753.34;;;13.30;65.62
26719;BME280;14326;50.794;6.060;2024-03-25T08:48:09;98761.75;;;12.32;69.47
26719;BME280;14326;50.794;6.060;2024-03-25T08:50:36;98753.47;;;12.55;71.42
26719;BME280;14326;50.794;6.060;2024-03-25T08:53:03;98750.81;;;13.20;64.39
26719;BME280;14326;50.794;6.060;2024-03-25T08:55:29;98743.88;;;13.63;62.72
26719;BME280;14326;50.794;6.060;2024-03-25T08:57:54;98743.25;;;13.97;58.59
26719;BME280;14326;50.794;6.060;2024-03-25T09:00:20;98741.44;;;13.99;57.91
26719;BME280;14326;50.794;6.060;2024-03-25T09:02:46;98742.38;;;13.96;58.13
26719;BME280;14326;50.794;6.060;2024-03-25T09:05:11;98752.28;;;12.06;57.86
26719;BME280;14326;50.794;6.060;2024-03-25T09:07:39;98751.81;;;12.47;60.31
26719;BME280;14326;50.794;6.060;2024-03-25T09:10:05;98746.50;;;13.13;58.54
26719;BME280;14326;50.794;6.060;2024-03-25T09:12:50;98746.63;;;12.31;56.72
26719;BME280;14326;50.794;6.060;2024-03-25T09:15:18;98739.63;;;12.92;57.36
26719;BME280;14326;50.794;6.060;2024-03-25T09:17:44;98736.34;;;13.33;56.43
26719;BME280;14326;50.794;6.060;2024-03-25T09:20:10;98732.34;;;13.60;55.58
26719;BME280;14326;50.794;6.060;2024-03-25T09:22:39;98732.72;;;13.89;51.45
26719;BME280;14326;50.794;6.060;2024-03-25T09:25:06;98729.06;;;13.94;52.03
26719;BME280;14326;50.794;6.060;2024-03-25T09:27:32;98731.38;;;14.13;51.37
26719;BME280;14326;50.794;6.060;2024-03-25T09:29:58;98724.25;;;14.12;51.57
26719;BME280;14326;50.794;6.060;2024-03-25T09:32:24;98724.56;;;13.46;52.13
26719;BME280;14326;50.794;6.060;2024-03-25T09:34:56;98717.72;;;13.80;53.37
26719;BME280;14326;50.794;6.060;2024-03-25T09:37:22;98719.41;;;13.84;50.40
26719;BME280;14326;50.794;6.060;2024-03-25T09:39:49;98720.28;;;13.86;50.11
26719;BME280;14326;50.794;6.060;2024-03-25T09:42:26;98711.16;;;13.97;48.44
26719;BME280;14326;50.794;6.060;2024-03-25T09:44:54;98714.41;;;14.14;48.21
26719;BME280;14326;50.794;6.060;2024-03-25T09:47:23;98706.78;;;14.40;47.28
26719;BME280;14326;50.794;6.060;2024-03-25T09:49:49;98711.88;;;14.52;48.17
26719;BME280;14326;50.794;6.060;2024-03-25T09:52:18;98704.28;;;14.31;46.45
26719;BME280;14326;50.794;6.060;2024-03-25T09:54:44;98706.97;;;12.75;48.94
26719;BME280;14326;50.794;6.060;2024-03-25T09:57:14;98700.63;;;12.82;51.16
26719;BME280;14326;50.794;6.060;2024-03-25T09:59:40;98690.69;;;12.91;50.77
26719;BME280;14326;50.794;6.060;2024-03-25T10:02:08;98687.84;;;13.03;48.87
26719;BME280;14326;50.794;6.060;2024-03-25T10:04:40;98679.84;;;13.57;48.45
26719;BME280;14326;50.794;6.060;2024-03-25T10:07:09;98680.44;;;13.24;45.88
26719;BME280;14326;50.794;6.060;2024-03-25T10:09:35;98676.50;;;13.44;47.86
26719;BME280;14326;50.794;6.060;2024-03-25T10:12:01;98671.13;;;13.93;47.38
26719;BME280;14326;50.794;6.060;2024-03-25T10:14:28;98670.66;;;14.18;45.35
26719;BME280;14326;50.794;6.060;2024-03-25T10:16:54;98671.63;;;14.55;45.91
26719;BME280;14326;50.794;6.060;2024-03-25T10:19:20;98667.56;;;14.39;42.62
26719;BME280;14326;50.794;6.060;2024-03-25T10:21:46;98660.38;;;14.41;44.00
26719;BME280;14326;50.794;6.060;2024-03-25T10:24:11;98654.19;;;13.48;47.13
26719;BME280;14326;50.794;6.060;2024-03-25T10:26:38;98650.84;;;13.83;46.62
26719;BME280;14326;50.794;6.060;2024-03-25T10:29:06;98652.50;;;14.32;44.41
26719;BME280;14326;50.794;6.060;2024-03-25T10:31:34;98645.22;;;14.79;45.10
26719;BME280;14326;50.794;6.060;2024-03-25T10:34:00;98642.69;;;15.11;43.08
26719;BME280;14326;50.794;6.060;2024-03-25T10:36:26;98650.22;;;14.95;44.78
26719;BME280;14326;50.794;6.060;2024-03-25T10:38:55;98642.44;;;15.20;41.74
26719;BME280;14326;50.794;6.060;2024-03-25T10:41:22;98639.38;;;15.71;40.67
26719;BME280;14326;50.794;6.060;2024-03-25T10:43:48;98635.28;;;15.88;39.44
26719;BME280;14326;50.794;6.060;2024-03-25T10:46:19;98635.41;;;16.15;40.14
26719;BME280;14326;50.794;6.060;2024-03-25T10:48:54;98639.25;;;16.06;40.31
26719;BME280;14326;50.794;6.060;2024-03-25T10:51:24;98625.16;;;16.00;40.16
26719;BME280;14326;50.794;6.060;2024-03-25T10:53:52;98615.09;;;16.08;39.58
26719;BME280;14326;50.794;6.060;2024-03-25T10:56:20;98610.47;;;15.80;41.61
26719;BME280;14326;50.794;6.060;2024-03-25T10:58:48;98613.78;;;15.59;40.91
26719;BME280;14326;50.794;6.060;2024-03-25T11:01:15;98613.19;;;15.46;39.90
26719;BME280;14326;50.794;6.060;2024-03-25T11:03:42;98614.22;;;15.41;39.60
26719;BME280;14326;50.794;6.060;2024-03-25T11:06:10;98601.19;;;15.61;40.41
26719;BME280;14326;50.794;6.060;2024-03-25T11:08:36;98597.78;;;15.87;38.88
26719;BME280;14326;50.794;6.060;2024-03-25T11:11:02;98586.88;;;15.62;36.79
26719;BME280;14326;50.794;6.060;2024-03-25T11:13:28;98599.53;;;14.88;36.89
26719;BME280;14326;50.794;6.060;2024-03-25T11:15:55;98591.78;;;15.45;38.65
26719;BME280;14326;50.794;6.060;2024-03-25T11:18:23;98586.66;;;15.70;37.67
26719;BME280;14326;50.794;6.060;2024-03-25T11:21:00;98587.06;;;15.87;36.19
26719;BME280;14326;50.794;6.060;2024-03-25T11:23:35;98576.88;;;16.29;37.65
26719;BME280;14326;50.794;6.060;2024-03-25T11:26:02;98573.31;;;16.56;34.66
26719;BME280;14326;50.794;6.060;2024-03-25T11:28:28;98569.72;;;16.85;35.56
26719;BME280;14326;50.794;6.060;2024-03-25T11:30:55;98573.84;;;16.69;36.64
26719;BME280;14326;50.794;6.060;2024-03-25T11:33:21;98571.66;;;16.52;36.17
26719;BME280;14326;50.794;6.060;2024-03-25T11:35:47;98573.78;;;16.43;37.15
26719;BME280;14326;50.794;6.060;2024-03-25T11:38:12;98562.50;;;16.31;36.76
26719;BME280;14326;50.794;6.060;2024-03-25T11:40:42;98554.53;;;15.68;39.02
26719;BME280;14326;50.794;6.060;2024-03-25T11:43:08;98557.28;;;15.67;38.32
26719;BME280;14326;50.794;6.060;2024-03-25T11:45:33;98547.91;;;15.49;39.33
26719;BME280;14326;50.794;6.060;2024-03-25T11:47:59;98546.84;;;15.22;41.01
26719;BME280;14326;50.794;6.060;2024-03-25T11:50:25;98540.25;;;15.35;39.81
26719;BME280;14326;50.794;6.060;2024-03-25T11:52:51;98537.63;;;15.32;39.39
26719;BME280;14326;50.794;6.060;2024-03-25T11:55:17;98533.38;;;15.25;38.94
26719;BME280;14326;50.794;6.060;2024-03-25T11:57:44;98523.06;;;15.75;40.09
26719;BME280;14326;50.794;6.060;2024-03-25T12:00:10;98525.16;;;15.94;40.05
26719;BME280;14326;50.794;6.060;2024-03-25T12:02:37;98521.97;;;16.39;38.78
26719;BME280;14326;50.794;6.060;2024-03-25T12:05:03;98516.94;;;16.56;37.73
26719;BME280;14326;50.794;6.060;2024-03-25T12:07:29;98515.97;;;16.60;38.15
26719;BME280;14326;50.794;6.060;2024-03-25T12:09:55;98512.00;;;16.72;38.08
26719;BME280;14326;50.794;6.060;2024-03-25T12:12:39;98501.34;;;16.69;36.83
26719;BME280;14326;50.794;6.060;2024-03-25T12:15:07;98505.44;;;16.53;37.53
26719;BME280;14326;50.794;6.060;2024-03-25T12:17:33;98496.41;;;16.27;36.88
26719;BME280;14326;50.794;6.060;2024-03-25T12:20:01;98502.38;;;16.37;38.32
26719;BME280;14326;50.794;6.060;2024-03-25T12:22:28;98499.06;;;16.00;36.54
26719;BME280;14326;50.794;6.060;2024-03-25T12:24:57;98489.97;;;15.12;38.19
26719;BME280;14326;50.794;6.060;2024-03-25T12:27:23;98490.31;;;14.66;41.38
26719;BME280;14326;50.794;6.060;2024-03-25T12:29:57;98482.66;;;15.50;40.38
26719;BME280;14326;50.794;6.060;2024-03-25T12:32:32;98470.97;;;15.54;38.69
26719;BME280;14326;50.794;6.060;2024-03-25T12:35:01;98458.72;;;15.75;41.18
26719;BME280;14326;50.794;6.060;2024-03-25T12:37:26;98460.22;;;15.23;40.02
26719;BME280;14326;50.794;6.060;2024-03-25T12:39:52;98458.94;;;15.36;40.13
26719;BME280;14326;50.794;6.060;2024-03-25T12:42:18;98445.66;;;15.92;40.88
26719;BME280;14326;50.794;6.060;2024-03-25T12:44:44;98451.56;;;15.75;40.08
26719;BME280;14326;50.794;6.060;2024-03-25T12:47:10;98445.16;;;15.79;41.06
26719;BME280;14326;50.794;6.060;2024-03-25T12:49:37;98439.97;;;15.73;39.33
26719;BME280;14326;50.794;6.060;2024-03-25T12:52:05;98443.69;;;15.07;38.22
26719;BME280;14326;50.794;6.060;2024-03-25T12:54:31;98446.44;;;14.00;39.16
26719;BME280;14326;50.794;6.060;2024-03-25T12:56:57;98444.56;;;14.03;40.37
26719;BME280;14326;50.794;6.060;2024-03-25T12:59:22;98428.78;;;14.65;41.00
26719;BME280;14326;50.794;6.060;2024-03-25T13:01:48;98426.19;;;14.62;40.89
26719;BME280;14326;50.794;6.060;2024-03-25T13:04:14;98429.16;;;14.50;38.66